sensor_id;sensor_type;location;lat;lon;timestamp;P1;P2;P0
72509;PMS5003;60532;56.114;40.350;2022-07-23T00:00:46;9.75;9.75;6.75
72509;PMS5003;60532;56.114;40.350;2022-07-23T00:05:47;11.00;11.00;8.00
72509;PMS5003;60532;56.114;40.350;2022-07-23T00:10:47;10.00;10.00;6.00
72509;PMS5003;60532;56.114;40.350;2022-07-23T00:15:48;9.25;7.75;4.75
72509;PMS5003;60532;56.114;40.350;2022-07-23T00:20:48;10.00;10.00;6.00
72509;PMS5003;60532;56.114;40.350;2022-07-23T00:25:49;10.50;10.50;6.75
72509;PMS5003;60532;56.114;40.350;2022-07-23T00:30:49;9.50;8.00;6.25
72509;PMS5003;60532;56.114;40.350;2022-07-23T00:35:50;9.00;7.75;6.50
72509;PMS5003;60532;56.114;40.350;2022-07-23T00:40:50;9.75;9.75;7.00
72509;PMS5003;60532;56.114;40.350;2022-07-23T00:45:51;12.00;10.75;7.75
72509;PMS5003;60532;56.114;40.350;2022-07-23T00:50:51;10.75;10.75;6.25
72509;PMS5003;60532;56.114;40.350;2022-07-23T00:55:52;17.75;16.25;11.50
72509;PMS5003;60532;56.114;40.350;2022-07-23T01:00:53;9.80;9.00;3.60
72509;PMS5003;60532;56.114;40.350;2022-07-23T01:05:54;41.50;32.50;18.50
72509;PMS5003;60532;56.114;40.350;2022-07-23T01:10:54;33.25;31.00;19.00
72509;PMS5003;60532;56.114;40.350;2022-07-23T01:15:55;27.00;24.00;12.00
72509;PMS5003;60532;56.114;40.350;2022-07-23T01:20:55;19.25;19.25;10.75
72509;PMS5003;60532;56.114;40.350;2022-07-23T01:25:56;18.00;15.25;10.00
72509;PMS5003;60532;56.114;40.350;2022-07-23T01:30:57;17.75;17.75;10.00
72509;PMS5003;60532;56.114;40.350;2022-07-23T01:35:57;15.00;14.50;10.00
72509;PMS5003;60532;56.114;40.350;2022-07-23T01:40:58;16.00;15.75;8.75
72509;PMS5003;60532;56.114;40.350;2022-07-23T01:45:58;18.50;15.25;8.00
72509;PMS5003;60532;56.114;40.350;2022-07-23T01:50:59;17.25;15.00;8.50
72509;PMS5003;60532;56.114;40.350;2022-07-23T01:55:59;16.25;16.25;9.50
72509;PMS5003;60532;56.114;40.350;2022-07-23T02:01:00;14.75;13.75;8.75
72509;PMS5003;60532;56.114;40.350;2022-07-23T02:06:00;14.25;11.25;8.50
72509;PMS5003;60532;56.114;40.350;2022-07-23T02:11:01;13.00;12.00;6.50
72509;PMS5003;60532;56.114;40.350;2022-07-23T02:16:02;18.00;15.75;11.00
72509;PMS5003;60532;56.114;40.350;2022-07-23T02:21:02;13.25;12.00;8.00
72509;PMS5003;60532;56.114;40.350;2022-07-23T02:26:03;13.50;12.50;7.00
72509;PMS5003;60532;56.114;40.350;2022-07-23T02:31:03;12.25;12.25;7.25
72509;PMS5003;60532;56.114;40.350;2022-07-23T02:36:04;14.00;14.00;8.50
72509;PMS5003;60532;56.114;40.350;2022-07-23T02:41:05;18.20;17.00;9.60
72509;PMS5003;60532;56.114;40.350;2022-07-23T02:46:05;14.25;14.25;9.50
72509;PMS5003;60532;56.114;40.350;2022-07-23T02:51:06;11.50;10.75;8.00
72509;PMS5003;60532;56.114;40.350;2022-07-23T02:56:06;12.00;12.00;8.50
72509;PMS5003;60532;56.114;40.350;2022-07-23T03:01:07;14.00;13.00;8.00
72509;PMS5003;60532;56.114;40.350;2022-07-23T03:06:08;14.50;14.50;9.00
72509;PMS5003;60532;56.114;40.350;2022-07-23T03:11:08;17.75;16.00;9.25
72509;PMS5003;60532;56.114;40.350;2022-07-23T03:16:11;14.00;12.20;9.00
72509;PMS5003;60532;56.114;40.350;2022-07-23T03:21:11;15.25;15.25;11.00
72509;PMS5003;60532;56.114;40.350;2022-07-23T03:26:12;17.75;17.50;11.00
72509;PMS5003;60532;56.114;40.350;2022-07-23T03:31:13;15.67;13.33;8.67
72509;PMS5003;60532;56.114;40.350;2022-07-23T03:36:13;17.00;16.50;10.00
72509;PMS5003;60532;56.114;40.350;2022-07-23T03:41:14;14.67;14.00;7.00
72509;PMS5003;60532;56.114;40.350;2022-07-23T03:46:14;17.00;17.00;9.33
72509;PMS5003;60532;56.114;40.350;2022-07-23T03:51:15;14.33;14.33;10.00
72509;PMS5003;60532;56.114;40.350;2022-07-23T03:56:15;17.00;15.33;9.00
72509;PMS5003;60532;56.114;40.350;2022-07-23T04:01:16;14.67;14.67;8.67
72509;PMS5003;60532;56.114;40.350;2022-07-23T04:06:16;14.00;14.00;8.33
72509;PMS5003;60532;56.114;40.350;2022-07-23T04:11:17;12.67;12.67;10.00
72509;PMS5003;60532;56.114;40.350;2022-07-23T04:16:17;12.33;12.33;8.33
72509;PMS5003;60532;56.114;40.350;2022-07-23T04:21:18;15.25;13.50;10.00
72509;PMS5003;60532;56.114;40.350;2022-07-23T04:26:18;17.75;15.00;9.75
72509;PMS5003;60532;56.114;40.350;2022-07-23T04:31:19;15.25;15.00;10.25
72509;PMS5003;60532;56.114;40.350;2022-07-23T04:36:19;17.50;16.75;11.00
72509;PMS5003;60532;56.114;40.350;2022-07-23T04:41:20;14.75;14.75;9.50
72509;PMS5003;60532;56.114;40.350;2022-07-23T04:46:20;17.00;14.50;9.50
72509;PMS5003;60532;56.114;40.350;2022-07-23T04:51:21;15.25;13.75;8.75
72509;PMS5003;60532;56.114;40.350;2022-07-23T04:56:21;16.50;14.50;9.75
72509;PMS5003;60532;56.114;40.350;2022-07-23T05:01:22;14.00;14.00;8.75
72509;PMS5003;60532;56.114;40.350;2022-07-23T05:06:22;14.50;14.50;10.50
72509;PMS5003;60532;56.114;40.350;2022-07-23T05:11:23;13.00;13.00;9.00
72509;PMS5003;60532;56.114;40.350;2022-07-23T05:16:23;13.00;13.00;8.75
72509;PMS5003;60532;56.114;40.350;2022-07-23T05:21:24;13.50;13.50;9.00
72509;PMS5003;60532;56.114;40.350;2022-07-23T05:26:25;22.40;21.00;14.00
72509;PMS5003;60532;56.114;40.350;2022-07-23T05:31:25;46.67;38.67;26.00
72509;PMS5003;60532;56.114;40.350;2022-07-23T05:36:26;48.67;40.67;27.00
72509;PMS5003;60532;56.114;40.350;2022-07-23T05:41:26;26.00;26.00;17.75
72509;PMS5003;60532;56.114;40.350;2022-07-23T05:46:27;33.75;30.75;23.00
72509;PMS5003;60532;56.114;40.350;2022-07-23T05:51:27;29.00;26.75;19.00
72509;PMS5003;60532;56.114;40.350;2022-07-23T05:56:28;23.25;19.25;13.00
72509;PMS5003;60532;56.114;40.350;2022-07-23T06:01:29;24.50;21.75;15.75
72509;PMS5003;60532;56.114;40.350;2022-07-23T06:06:29;19.00;17.75;12.00
72509;PMS5003;60532;56.114;40.350;2022-07-23T06:11:30;22.50;20.75;13.25
72509;PMS5003;60532;56.114;40.350;2022-07-23T06:16:30;19.25;19.25;13.00
72509;PMS5003;60532;56.114;40.350;2022-07-23T06:21:31;20.75;19.50;12.00
72509;PMS5003;60532;56.114;40.350;2022-07-23T06:26:32;18.50;16.50;10.50
72509;PMS5003;60532;56.114;40.350;2022-07-23T06:31:32;18.75;16.75;11.75
72509;PMS5003;60532;56.114;40.350;2022-07-23T06:36:33;18.40;17.20;11.80
72509;PMS5003;60532;56.114;40.350;2022-07-23T06:41:34;19.75;19.75;12.00
72509;PMS5003;60532;56.114;40.350;2022-07-23T06:46:34;17.00;16.25;11.00
72509;PMS5003;60532;56.114;40.350;2022-07-23T06:51:35;19.25;19.25;12.25
72509;PMS5003;60532;56.114;40.350;2022-07-23T06:56:36;16.25;16.25;11.00
72509;PMS5003;60532;56.114;40.350;2022-07-23T07:01:36;18.67;18.67;12.67
72509;PMS5003;60532;56.114;40.350;2022-07-23T07:06:37;17.33;17.33;12.00
72509;PMS5003;60532;56.114;40.350;2022-07-23T07:11:37;23.00;22.00;14.00
72509;PMS5003;60532;56.114;40.350;2022-07-23T07:16:38;20.00;19.33;11.33
72509;PMS5003;60532;56.114;40.350;2022-07-23T07:21:38;27.67;26.00;13.67
72509;PMS5003;60532;56.114;40.350;2022-07-23T07:26:39;24.00;21.00;13.33
72509;PMS5003;60532;56.114;40.350;2022-07-23T07:31:39;24.33;23.00;13.00
72509;PMS5003;60532;56.114;40.350;2022-07-23T07:36:40;21.67;21.00;12.33
72509;PMS5003;60532;56.114;40.350;2022-07-23T07:41:40;20.00;20.00;13.00
72509;PMS5003;60532;56.114;40.350;2022-07-23T07:46:41;18.67;18.67;11.00
72509;PMS5003;60532;56.114;40.350;2022-07-23T07:51:41;22.67;22.67;12.67
72509;PMS5003;60532;56.114;40.350;2022-07-23T07:56:42;20.00;18.67;12.33
72509;PMS5003;60532;56.114;40.350;2022-07-23T08:01:43;20.50;19.00;13.00
72509;PMS5003;60532;56.114;40.350;2022-07-23T08:06:43;22.33;22.33;12.33
72509;PMS5003;60532;56.114;40.350;2022-07-23T08:11:43;19.33;18.00;12.33
72509;PMS5003;60532;56.114;40.350;2022-07-23T08:16:44;22.50;21.50;11.00
72509;PMS5003;60532;56.114;40.350;2022-07-23T08:21:45;19.67;19.67;12.00
72509;PMS5003;60532;56.114;40.350;2022-07-23T08:26:45;24.00;24.00;14.00
72509;PMS5003;60532;56.114;40.350;2022-07-23T08:31:46;23.00;22.33;13.67
72509;PMS5003;60532;56.114;40.350;2022-07-23T08:36:46;22.00;22.00;13.00
72509;PMS5003;60532;56.114;40.350;2022-07-23T08:41:47;19.00;18.67;12.00
72509;PMS5003;60532;56.114;40.350;2022-07-23T08:46:48;24.75;22.50;13.00
72509;PMS5003;60532;56.114;40.350;2022-07-23T08:51:49;18.33;18.33;11.00
72509;PMS5003;60532;56.114;40.350;2022-07-23T08:56:49;19.00;19.00;11.00
72509;PMS5003;60532;56.114;40.350;2022-07-23T09:01:50;26.33;25.00;14.00
72509;PMS5003;60532;56.114;40.350;2022-07-23T09:06:50;27.33;23.00;14.00
72509;PMS5003;60532;56.114;40.350;2022-07-23T09:17:10;24.00;23.50;13.50
72509;PMS5003;60532;56.114;40.350;2022-07-23T09:22:18;25.25;23.00;14.25
72509;PMS5003;60532;56.114;40.350;2022-07-23T09:27:19;18.25;18.25;12.00
72509;PMS5003;60532;56.114;40.350;2022-07-23T09:32:19;24.67;23.00;14.00
72509;PMS5003;60532;56.114;40.350;2022-07-23T09:37:20;23.00;22.00;13.00
72509;PMS5003;60532;56.114;40.350;2022-07-23T09:42:22;22.67;22.00;13.00
72509;PMS5003;60532;56.114;40.350;2022-07-23T09:47:24;23.00;21.00;13.00
72509;PMS5003;60532;56.114;40.350;2022-07-23T09:52:28;21.00;21.00;12.00
72509;PMS5003;60532;56.114;40.350;2022-07-23T09:57:31;23.00;21.75;13.00
72509;PMS5003;60532;56.114;40.350;2022-07-23T10:02:32;27.50;25.75;14.25
72509;PMS5003;60532;56.114;40.350;2022-07-23T10:07:35;21.50;21.50;10.75
72509;PMS5003;60532;56.114;40.350;2022-07-23T10:12:36;24.50;21.75;12.50
72509;PMS5003;60532;56.114;40.350;2022-07-23T10:17:52;19.50;19.50;12.50
72509;PMS5003;60532;56.114;40.350;2022-07-23T10:28:42;24.00;19.50;11.25
72509;PMS5003;60532;56.114;40.350;2022-07-23T10:38:55;24.75;21.75;13.50
72509;PMS5003;60532;56.114;40.350;2022-07-23T10:49:30;23.00;21.50;11.75
72509;PMS5003;60532;56.114;40.350;2022-07-23T10:54:31;23.50;22.75;14.00
72509;PMS5003;60532;56.114;40.350;2022-07-23T10:59:31;24.33;22.67;12.33
72509;PMS5003;60532;56.114;40.350;2022-07-23T11:04:48;21.33;20.33;12.33
72509;PMS5003;60532;56.114;40.350;2022-07-23T11:09:48;22.75;22.75;12.25
72509;PMS5003;60532;56.114;40.350;2022-07-23T11:25:13;22.50;20.00;11.50
72509;PMS5003;60532;56.114;40.350;2022-07-23T11:35:27;19.00;17.00;10.00
72509;PMS5003;60532;56.114;40.350;2022-07-23T11:40:28;30.75;22.50;12.25
72509;PMS5003;60532;56.114;40.350;2022-07-23T11:45:42;19.00;18.00;9.00
72509;PMS5003;60532;56.114;40.350;2022-07-23T11:50:42;23.25;21.50;13.75
72509;PMS5003;60532;56.114;40.350;2022-07-23T11:55:43;22.67;22.67;13.33
72509;PMS5003;60532;56.114;40.350;2022-07-23T12:00:43;22.00;20.67;13.00
72509;PMS5003;60532;56.114;40.350;2022-07-23T12:05:44;18.00;17.00;11.00
72509;PMS5003;60532;56.114;40.350;2022-07-23T12:10:44;16.67;16.33;10.00
72509;PMS5003;60532;56.114;40.350;2022-07-23T12:15:46;16.67;16.67;11.33
72509;PMS5003;60532;56.114;40.350;2022-07-23T12:20:49;19.75;19.75;11.25
72509;PMS5003;60532;56.114;40.350;2022-07-23T12:25:50;17.75;17.75;10.25
72509;PMS5003;60532;56.114;40.350;2022-07-23T12:30:52;23.50;23.50;13.00
72509;PMS5003;60532;56.114;40.350;2022-07-23T12:35:56;21.75;19.25;11.25
72509;PMS5003;60532;56.114;40.350;2022-07-23T12:40:58;17.25;17.25;9.50
72509;PMS5003;60532;56.114;40.350;2022-07-23T12:46:09;18.75;18.75;12.00
72509;PMS5003;60532;56.114;40.350;2022-07-23T12:51:17;18.25;18.25;11.50
72509;PMS5003;60532;56.114;40.350;2022-07-23T12:56:19;17.75;16.00;12.25
72509;PMS5003;60532;56.114;40.350;2022-07-23T13:06:20;21.67;21.33;11.33
72509;PMS5003;60532;56.114;40.350;2022-07-23T13:11:21;25.00;23.67;12.33
72509;PMS5003;60532;56.114;40.350;2022-07-23T13:16:22;21.33;21.33;12.67
72509;PMS5003;60532;56.114;40.350;2022-07-23T13:21:22;22.67;20.33;13.00
72509;PMS5003;60532;56.114;40.350;2022-07-23T13:26:23;12.00;12.00;8.33
72509;PMS5003;60532;56.114;40.350;2022-07-23T13:31:24;20.75;19.75;12.00
72509;PMS5003;60532;56.114;40.350;2022-07-23T13:36:24;21.33;21.33;14.00
72509;PMS5003;60532;56.114;40.350;2022-07-23T13:41:25;19.67;19.00;11.00
72509;PMS5003;60532;56.114;40.350;2022-07-23T13:46:25;20.67;18.00;11.67
72509;PMS5003;60532;56.114;40.350;2022-07-23T13:51:26;20.33;19.67;12.00
72509;PMS5003;60532;56.114;40.350;2022-07-23T13:56:27;20.67;18.67;10.33
72509;PMS5003;60532;56.114;40.350;2022-07-23T14:01:27;16.00;14.00;10.67
72509;PMS5003;60532;56.114;40.350;2022-07-23T14:06:28;22.00;22.00;12.67
72509;PMS5003;60532;56.114;40.350;2022-07-23T14:11:28;23.00;21.33;12.33
72509;PMS5003;60532;56.114;40.350;2022-07-23T14:16:30;17.00;17.00;10.00
72509;PMS5003;60532;56.114;40.350;2022-07-23T14:21:31;23.00;23.00;11.67
72509;PMS5003;60532;56.114;40.350;2022-07-23T14:26:31;18.33;18.33;12.33
72509;PMS5003;60532;56.114;40.350;2022-07-23T14:31:32;16.33;16.33;10.33
72509;PMS5003;60532;56.114;40.350;2022-07-23T14:36:32;24.00;19.67;12.33
72509;PMS5003;60532;56.114;40.350;2022-07-23T14:41:33;15.33;15.33;9.00
72509;PMS5003;60532;56.114;40.350;2022-07-23T14:46:34;22.33;21.33;12.00
72509;PMS5003;60532;56.114;40.350;2022-07-23T14:51:34;21.67;19.00;11.00
72509;PMS5003;60532;56.114;40.350;2022-07-23T14:56:36;21.25;20.00;11.50
72509;PMS5003;60532;56.114;40.350;2022-07-23T15:01:37;20.33;20.33;12.33
72509;PMS5003;60532;56.114;40.350;2022-07-23T15:06:37;20.00;20.00;11.33
72509;PMS5003;60532;56.114;40.350;2022-07-23T15:11:39;23.50;23.00;13.25
72509;PMS5003;60532;56.114;40.350;2022-07-23T15:16:39;21.00;19.00;11.67
72509;PMS5003;60532;56.114;40.350;2022-07-23T15:21:40;19.67;17.33;9.33
72509;PMS5003;60532;56.114;40.350;2022-07-23T15:26:40;18.67;17.00;10.33
72509;PMS5003;60532;56.114;40.350;2022-07-23T15:31:41;15.00;14.33;8.00
72509;PMS5003;60532;56.114;40.350;2022-07-23T15:36:41;19.33;19.33;12.00
72509;PMS5003;60532;56.114;40.350;2022-07-23T15:41:42;21.67;18.33;11.33
72509;PMS5003;60532;56.114;40.350;2022-07-23T15:46:43;21.33;19.67;10.33
72509;PMS5003;60532;56.114;40.350;2022-07-23T15:51:43;21.33;20.33;12.33
72509;PMS5003;60532;56.114;40.350;2022-07-23T15:56:43;23.00;21.33;13.00
72509;PMS5003;60532;56.114;40.350;2022-07-23T16:01:44;23.67;23.00;12.33
72509;PMS5003;60532;56.114;40.350;2022-07-23T16:06:44;18.33;16.33;6.67
72509;PMS5003;60532;56.114;40.350;2022-07-23T16:11:45;21.00;20.33;12.00
72509;PMS5003;60532;56.114;40.350;2022-07-23T16:16:45;23.00;21.67;12.00
72509;PMS5003;60532;56.114;40.350;2022-07-23T16:21:46;26.67;25.67;14.00
72509;PMS5003;60532;56.114;40.350;2022-07-23T16:26:46;21.33;20.33;12.00
72509;PMS5003;60532;56.114;40.350;2022-07-23T16:31:47;24.67;22.00;12.00
72509;PMS5003;60532;56.114;40.350;2022-07-23T16:36:48;25.67;23.33;14.00
72509;PMS5003;60532;56.114;40.350;2022-07-23T16:41:48;25.67;24.00;14.67
72509;PMS5003;60532;56.114;40.350;2022-07-23T16:46:49;25.67;23.00;14.00
72509;PMS5003;60532;56.114;40.350;2022-07-23T16:51:49;25.00;25.00;16.00
72509;PMS5003;60532;56.114;40.350;2022-07-23T16:56:50;22.33;21.00;12.00
72509;PMS5003;60532;56.114;40.350;2022-07-23T17:01:50;20.00;19.00;12.00
72509;PMS5003;60532;56.114;40.350;2022-07-23T17:06:51;24.33;21.67;13.00
72509;PMS5003;60532;56.114;40.350;2022-07-23T17:11:51;34.75;32.75;21.00
72509;PMS5003;60532;56.114;40.350;2022-07-23T17:16:52;36.00;32.25;19.25
72509;PMS5003;60532;56.114;40.350;2022-07-23T17:21:52;45.75;38.00;21.50
72509;PMS5003;60532;56.114;40.350;2022-07-23T17:26:53;38.75;35.75;21.25
72509;PMS5003;60532;56.114;40.350;2022-07-23T17:31:53;43.00;33.25;21.25
72509;PMS5003;60532;56.114;40.350;2022-07-23T17:36:54;42.50;35.25;22.25
72509;PMS5003;60532;56.114;40.350;2022-07-23T17:41:55;38.25;33.75;20.25
72509;PMS5003;60532;56.114;40.350;2022-07-23T17:46:55;34.75;32.75;19.75
72509;PMS5003;60532;56.114;40.350;2022-07-23T17:51:58;36.00;33.00;20.00
72509;PMS5003;60532;56.114;40.350;2022-07-23T17:56:59;29.75;28.00;16.25
72509;PMS5003;60532;56.114;40.350;2022-07-23T18:02:00;29.00;25.33;14.00
72509;PMS5003;60532;56.114;40.350;2022-07-23T18:07:00;35.67;30.33;16.33
72509;PMS5003;60532;56.114;40.350;2022-07-23T18:12:01;26.33;24.00;14.33
72509;PMS5003;60532;56.114;40.350;2022-07-23T18:17:02;22.33;20.67;15.00
72509;PMS5003;60532;56.114;40.350;2022-07-23T18:22:02;24.33;21.67;11.00
72509;PMS5003;60532;56.114;40.350;2022-07-23T18:27:03;26.00;22.33;14.00
72509;PMS5003;60532;56.114;40.350;2022-07-23T18:32:03;18.67;16.67;12.33
72509;PMS5003;60532;56.114;40.350;2022-07-23T18:37:04;19.33;17.67;10.33
72509;PMS5003;60532;56.114;40.350;2022-07-23T18:42:04;25.00;23.67;13.00
72509;PMS5003;60532;56.114;40.350;2022-07-23T18:47:05;21.67;20.67;13.00
72509;PMS5003;60532;56.114;40.350;2022-07-23T18:52:05;19.33;19.33;12.00
72509;PMS5003;60532;56.114;40.350;2022-07-23T18:57:06;27.25;24.00;12.75
72509;PMS5003;60532;56.114;40.350;2022-07-23T19:02:07;19.25;18.25;12.00
72509;PMS5003;60532;56.114;40.350;2022-07-23T19:07:07;23.75;22.50;12.50
72509;PMS5003;60532;56.114;40.350;2022-07-23T19:12:08;22.50;22.50;11.75
72509;PMS5003;60532;56.114;40.350;2022-07-23T19:17:08;19.25;19.25;11.50
72509;PMS5003;60532;56.114;40.350;2022-07-23T19:22:09;22.00;19.50;11.50
72509;PMS5003;60532;56.114;40.350;2022-07-23T19:27:10;22.00;20.50;12.00
72509;PMS5003;60532;56.114;40.350;2022-07-23T19:32:10;23.25;22.50;13.00
72509;PMS5003;60532;56.114;40.350;2022-07-23T19:37:11;16.25;14.50;11.50
72509;PMS5003;60532;56.114;40.350;2022-07-23T19:42:13;21.40;20.20;12.00
72509;PMS5003;60532;56.114;40.350;2022-07-23T19:47:14;20.25;20.25;12.00
72509;PMS5003;60532;56.114;40.350;2022-07-23T19:52:14;14.00;11.75;3.50
72509;PMS5003;60532;56.114;40.350;2022-07-23T19:57:14;20.25;19.25;12.00
72509;PMS5003;60532;56.114;40.350;2022-07-23T20:02:15;21.25;19.50;11.75
72509;PMS5003;60532;56.114;40.350;2022-07-23T20:07:16;18.00;17.25;10.75
72509;PMS5003;60532;56.114;40.350;2022-07-23T20:12:16;17.25;16.75;11.50
72509;PMS5003;60532;56.114;40.350;2022-07-23T20:17:17;15.25;15.25;10.00
72509;PMS5003;60532;56.114;40.350;2022-07-23T20:22:17;17.25;16.50;10.00
72509;PMS5003;60532;56.114;40.350;2022-07-23T20:27:18;22.00;22.00;11.50
72509;PMS5003;60532;56.114;40.350;2022-07-23T20:32:19;17.60;17.60;10.80
72509;PMS5003;60532;56.114;40.350;2022-07-23T20:37:19;18.75;17.00;9.25
72509;PMS5003;60532;56.114;40.350;2022-07-23T20:42:20;18.50;16.75;10.25
72509;PMS5003;60532;56.114;40.350;2022-07-23T20:47:21;14.00;14.00;11.00
72509;PMS5003;60532;56.114;40.350;2022-07-23T20:52:21;16.75;15.25;8.50
72509;PMS5003;60532;56.114;40.350;2022-07-23T20:57:22;20.00;17.00;10.00
72509;PMS5003;60532;56.114;40.350;2022-07-23T21:02:23;19.50;19.00;11.00
72509;PMS5003;60532;56.114;40.350;2022-07-23T21:07:23;16.50;16.25;10.00
72509;PMS5003;60532;56.114;40.350;2022-07-23T21:12:24;19.75;18.25;11.00
72509;PMS5003;60532;56.114;40.350;2022-07-23T21:17:25;14.80;14.80;9.60
72509;PMS5003;60532;56.114;40.350;2022-07-23T21:22:26;18.25;18.25;12.00
72509;PMS5003;60532;56.114;40.350;2022-07-23T21:27:26;20.00;18.25;11.00
72509;PMS5003;60532;56.114;40.350;2022-07-23T21:32:27;16.75;15.00;10.50
72509;PMS5003;60532;56.114;40.350;2022-07-23T21:37:27;17.75;17.00;10.00
72509;PMS5003;60532;56.114;40.350;2022-07-23T21:42:28;9.00;9.00;7.00
72509;PMS5003;60532;56.114;40.350;2022-07-23T21:47:28;20.75;20.00;11.50
72509;PMS5003;60532;56.114;40.350;2022-07-23T21:52:29;18.00;18.00;10.00
72509;PMS5003;60532;56.114;40.350;2022-07-23T21:57:31;18.00;14.60;7.80
72509;PMS5003;60532;56.114;40.350;2022-07-23T22:02:31;15.00;14.25;9.50
72509;PMS5003;60532;56.114;40.350;2022-07-23T22:07:31;13.75;13.75;6.00
72509;PMS5003;60532;56.114;40.350;2022-07-23T22:12:32;12.25;12.25;9.25
72509;PMS5003;60532;56.114;40.350;2022-07-23T22:17:33;15.50;14.50;9.00
72509;PMS5003;60532;56.114;40.350;2022-07-23T22:22:33;16.25;16.25;10.25
72509;PMS5003;60532;56.114;40.350;2022-07-23T22:27:34;14.00;14.00;9.25
72509;PMS5003;60532;56.114;40.350;2022-07-23T22:32:34;12.00;12.00;8.00
72509;PMS5003;60532;56.114;40.350;2022-07-23T22:37:35;18.25;18.25;13.50
72509;PMS5003;60532;56.114;40.350;2022-07-23T22:42:35;15.75;13.25;8.75
72509;PMS5003;60532;56.114;40.350;2022-07-23T22:47:36;24.00;22.25;14.25
72509;PMS5003;60532;56.114;40.350;2022-07-23T22:52:36;27.75;26.75;15.50
72509;PMS5003;60532;56.114;40.350;2022-07-23T22:57:37;25.00;24.50;16.00
72509;PMS5003;60532;56.114;40.350;2022-07-23T23:02:38;21.00;21.00;12.25
72509;PMS5003;60532;56.114;40.350;2022-07-23T23:07:38;14.50;14.00;10.00
72509;PMS5003;60532;56.114;40.350;2022-07-23T23:12:39;17.00;16.00;9.50
72509;PMS5003;60532;56.114;40.350;2022-07-23T23:17:39;15.25;15.25;9.00
72509;PMS5003;60532;56.114;40.350;2022-07-23T23:22:40;16.25;14.75;9.00
72509;PMS5003;60532;56.114;40.350;2022-07-23T23:27:40;21.50;18.50;11.75
72509;PMS5003;60532;56.114;40.350;2022-07-23T23:32:41;16.25;15.50;10.00
72509;PMS5003;60532;56.114;40.350;2022-07-23T23:37:42;17.25;16.75;11.50
72509;PMS5003;60532;56.114;40.350;2022-07-23T23:42:42;12.75;12.75;8.00
72509;PMS5003;60532;56.114;40.350;2022-07-23T23:47:43;16.60;16.60;10.20
72509;PMS5003;60532;56.114;40.350;2022-07-23T23:52:44;16.50;15.00;10.00
72509;PMS5003;60532;56.114;40.350;2022-07-23T23:57:44;17.75;17.75;10.75
